createdAt,value
2022-08-08T00:00:50.368Z,18.30
2022-08-08T00:01:06.898Z,18.28
2022-08-08T00:02:30.103Z,18.25
2022-08-08T00:02:57.387Z,18.22
2022-08-08T00:03:56.366Z,18.20
2022-08-08T00:04:58.629Z,18.16
2022-08-08T00:06:03.433Z,18.14
2022-08-08T00:06:57.325Z,18.12
2022-08-08T00:07:56.421Z,18.12
2022-08-08T00:08:56.283Z,18.13
2022-08-08T00:09:56.456Z,18.12
2022-08-08T00:10:56.261Z,18.11
2022-08-08T00:12:07.612Z,18.12
2022-08-08T00:12:57.218Z,18.13
2022-08-08T00:14:17.528Z,18.16
2022-08-08T00:15:24.516Z,18.19
2022-08-08T00:15:58.266Z,18.22
2022-08-08T00:16:56.231Z,18.25
2022-08-08T00:18:02.058Z,18.27
2022-08-08T00:18:57.132Z,18.28
2022-08-08T00:19:56.249Z,18.27
2022-08-08T00:20:56.108Z,18.26
2022-08-08T00:21:56.220Z,18.24
2022-08-08T00:22:56.098Z,18.21
2022-08-08T00:23:56.200Z,18.19
2022-08-08T00:24:56.061Z,18.18
2022-08-08T00:25:57.159Z,18.19
2022-08-08T00:26:56.027Z,18.14
2022-08-08T00:27:56.231Z,18.13
2022-08-08T00:28:56.001Z,18.13
2022-08-08T00:29:56.126Z,18.14
2022-08-08T00:31:01.043Z,18.14
2022-08-08T00:32:20.909Z,18.13
2022-08-08T00:32:58.116Z,18.10
2022-08-08T00:34:17.840Z,18.09
2022-08-08T00:34:56.921Z,18.06
2022-08-08T00:35:56.002Z,18.04
2022-08-08T00:36:55.894Z,18.03
2022-08-08T00:38:02.494Z,18.04
2022-08-08T00:38:56.891Z,18.04
2022-08-08T00:41:11.326Z,18.04
2022-08-08T00:41:11.468Z,18.03
2022-08-08T00:42:12.679Z,18.04
2022-08-08T00:42:57.957Z,18.05
2022-08-08T00:43:59.232Z,18.04
2022-08-08T00:44:55.811Z,18.02
2022-08-08T00:45:55.892Z,18.01
2022-08-08T00:46:57.449Z,18.00
2022-08-08T00:48:29.980Z,17.98
2022-08-08T00:49:01.196Z,17.98
2022-08-08T00:49:59.316Z,17.98
2022-08-08T00:50:55.732Z,17.99
2022-08-08T00:51:55.742Z,17.99
2022-08-08T00:52:55.694Z,17.99
2022-08-08T00:54:04.637Z,18.02
2022-08-08T00:54:56.666Z,18.05
2022-08-08T00:55:55.772Z,18.08
2022-08-08T00:56:55.671Z,18.08
2022-08-08T00:57:58.054Z,18.08
2022-08-08T00:58:55.603Z,18.04
2022-08-08T01:00:16.694Z,18.01
2022-08-08T01:00:55.626Z,18.00
2022-08-08T01:02:01.757Z,17.97
2022-08-08T01:03:59.666Z,17.93
2022-08-08T01:04:01.822Z,17.89
2022-08-08T01:04:56.523Z,17.86
2022-08-08T01:05:59.418Z,17.80
2022-08-08T01:07:00.234Z,17.71
2022-08-08T01:07:56.986Z,17.65
2022-08-08T01:08:55.693Z,17.61
2022-08-08T01:09:55.464Z,17.58
2022-08-08T01:10:55.475Z,17.55
2022-08-08T01:11:55.433Z,17.53
2022-08-08T01:12:55.513Z,17.49
2022-08-08T01:13:58.257Z,17.46
2022-08-08T01:14:57.352Z,17.44
2022-08-08T01:15:55.374Z,17.42
2022-08-08T01:16:56.514Z,17.41
2022-08-08T01:17:59.148Z,17.41
2022-08-08T01:18:56.396Z,17.41
2022-08-08T01:20:02.588Z,17.41
2022-08-08T01:20:56.325Z,17.41
2022-08-08T01:22:12.046Z,17.41
2022-08-08T01:22:56.285Z,17.41
2022-08-08T01:24:05.408Z,17.40
2022-08-08T01:24:56.257Z,17.41
2022-08-08T01:25:56.344Z,17.41
2022-08-08T01:26:55.235Z,17.43
2022-08-08T01:27:59.349Z,17.45
2022-08-08T01:28:55.214Z,17.46
2022-08-08T01:29:59.326Z,17.45
2022-08-08T01:30:56.177Z,17.44
2022-08-08T01:32:13.182Z,17.44
2022-08-08T01:32:56.304Z,17.44
2022-08-08T01:34:00.671Z,17.45
2022-08-08T01:34:56.124Z,17.47
2022-08-08T01:35:55.166Z,17.49
2022-08-08T01:36:56.182Z,17.52
2022-08-08T01:37:57.224Z,17.54
2022-08-08T01:38:55.072Z,17.56
2022-08-08T01:39:56.224Z,17.57
2022-08-08T01:40:55.054Z,17.59
2022-08-08T01:41:55.174Z,17.59
2022-08-08T01:42:55.036Z,17.58
2022-08-08T01:43:55.115Z,17.56
2022-08-08T01:44:55.026Z,17.53
2022-08-08T01:45:56.472Z,17.47
2022-08-08T01:46:54.979Z,17.41
2022-08-08T01:48:14.138Z,17.39
2022-08-08T01:48:56.107Z,17.39
2022-08-08T01:49:57.824Z,17.38
2022-08-08T01:50:54.920Z,17.37
2022-08-08T01:52:04.783Z,17.35
2022-08-08T01:55:15.630Z,17.35
2022-08-08T01:55:25.600Z,17.36
2022-08-08T01:55:26.699Z,17.36
2022-08-08T01:56:28.502Z,17.36
2022-08-08T01:56:55.849Z,17.37
2022-08-08T01:58:11.785Z,17.41
2022-08-08T01:58:55.810Z,17.47
2022-08-08T02:00:02.072Z,17.53
2022-08-08T02:00:58.231Z,17.58
2022-08-08T02:02:03.174Z,17.60
2022-08-08T02:02:57.012Z,17.63
2022-08-08T02:03:58.049Z,17.67
2022-08-08T02:04:54.726Z,17.70
2022-08-08T02:05:55.854Z,17.71
2022-08-08T02:06:54.728Z,17.71
2022-08-08T02:07:54.837Z,17.72
2022-08-08T02:08:54.678Z,17.73
2022-08-08T02:10:04.018Z,17.73
2022-08-08T02:10:55.659Z,17.73
2022-08-08T02:12:00.460Z,17.71
2022-08-08T02:12:55.648Z,17.70
2022-08-08T02:13:55.792Z,17.71
2022-08-08T02:14:58.723Z,17.75
2022-08-08T02:15:54.583Z,17.77
2022-08-08T02:16:54.649Z,17.76
2022-08-08T02:17:54.565Z,17.76
2022-08-08T02:18:58.804Z,17.72
2022-08-08T02:20:07.706Z,17.69
2022-08-08T02:21:02.342Z,17.66
2022-08-08T02:21:55.499Z,17.62
2022-08-08T02:22:55.124Z,17.58
2022-08-08T02:23:54.752Z,17.54
2022-08-08T02:24:54.640Z,17.51
2022-08-08T02:25:56.320Z,17.51
2022-08-08T02:27:00.722Z,17.49
2022-08-08T02:27:55.437Z,17.45
2022-08-08T02:28:54.501Z,17.41
2022-08-08T02:29:54.401Z,17.37
2022-08-08T02:30:58.229Z,17.33
2022-08-08T02:32:01.118Z,17.28
2022-08-08T02:32:55.367Z,17.23
2022-08-08T02:34:08.601Z,17.15
2022-08-08T02:35:10.644Z,17.10
2022-08-08T02:36:03.896Z,17.09
2022-08-08T02:36:55.311Z,17.07
2022-08-08T02:37:56.778Z,17.06
2022-08-08T02:38:54.290Z,17.06
2022-08-08T02:39:59.836Z,17.07
2022-08-08T02:40:55.365Z,17.07
2022-08-08T02:42:03.898Z,17.08
2022-08-08T02:44:35.359Z,17.10
2022-08-08T02:44:38.106Z,17.11
2022-08-08T02:44:57.239Z,17.11
2022-08-08T02:45:56.848Z,17.12
2022-08-08T02:46:54.271Z,17.11
2022-08-08T02:47:55.133Z,17.09
2022-08-08T02:48:54.313Z,17.07
2022-08-08T02:49:54.148Z,17.05
2022-08-08T02:50:56.017Z,17.01
2022-08-08T02:51:57.199Z,16.94
2022-08-08T02:52:55.115Z,16.87
2022-08-08T02:53:54.255Z,16.81
2022-08-08T02:54:54.070Z,16.78
2022-08-08T02:55:59.762Z,16.79
2022-08-08T02:56:55.053Z,16.80
2022-08-08T02:57:54.111Z,16.85
2022-08-08T02:58:54.046Z,16.90
2022-08-08T02:59:58.491Z,16.95
2022-08-08T03:00:55.013Z,17.01
2022-08-08T03:01:54.123Z,17.05
2022-08-08T03:02:53.963Z,17.09
2022-08-08T03:05:02.419Z,17.16
2022-08-08T03:05:04.334Z,17.22
2022-08-08T03:05:55.741Z,17.27
2022-08-08T03:06:54.032Z,17.30
2022-08-08T03:07:57.908Z,17.32
2022-08-08T03:08:54.874Z,17.32
2022-08-08T03:09:54.025Z,17.30
2022-08-08T03:10:54.271Z,17.26
2022-08-08T03:12:02.096Z,17.24
2022-08-08T03:13:02.626Z,17.24
2022-08-08T03:15:57.286Z,17.22
2022-08-08T03:15:57.498Z,17.22
2022-08-08T03:16:05.001Z,17.23
2022-08-08T03:16:54.816Z,17.23
2022-08-08T03:18:05.027Z,17.22
2022-08-08T03:18:54.757Z,17.24
2022-08-08T03:19:53.904Z,17.27
2022-08-08T03:20:53.726Z,17.30
2022-08-08T03:21:58.620Z,17.31
2022-08-08T03:22:56.022Z,17.30
2022-08-08T03:23:59.431Z,17.29
2022-08-08T03:24:56.972Z,17.28
2022-08-08T03:25:54.111Z,17.26
2022-08-08T03:26:53.651Z,17.28
2022-08-08T03:27:56.749Z,17.28
2022-08-08T03:28:53.624Z,17.30
2022-08-08T03:29:56.293Z,17.32
2022-08-08T03:31:13.565Z,17.34
2022-08-08T03:32:06.239Z,17.35
2022-08-08T03:32:59.989Z,17.35
2022-08-08T03:34:00.852Z,17.37
2022-08-08T03:34:54.545Z,17.38
2022-08-08T03:35:55.685Z,17.38
2022-08-08T03:36:53.525Z,17.37
2022-08-08T03:38:54.723Z,17.36
2022-08-08T03:39:07.945Z,17.32
2022-08-08T03:40:00.386Z,17.30
2022-08-08T03:40:54.560Z,17.29
2022-08-08T03:42:28.488Z,17.29
2022-08-08T03:42:54.586Z,17.28
2022-08-08T03:43:53.435Z,17.29
2022-08-08T03:44:54.435Z,17.32
2022-08-08T03:46:07.395Z,17.34
2022-08-08T03:46:54.385Z,17.36
2022-08-08T03:47:54.205Z,17.38
2022-08-08T03:49:56.760Z,17.34
2022-08-08T03:50:00.664Z,17.31
2022-08-08T03:50:54.356Z,17.30
2022-08-08T03:51:55.567Z,17.32
2022-08-08T03:52:53.337Z,17.34
2022-08-08T03:53:54.926Z,17.36
2022-08-08T03:55:10.211Z,17.37
2022-08-08T03:55:56.792Z,17.37
2022-08-08T03:56:53.295Z,17.36
2022-08-08T03:58:30.194Z,17.35
2022-08-08T03:58:54.256Z,17.34
2022-08-08T04:00:02.944Z,17.34
2022-08-08T04:01:01.618Z,17.35
2022-08-08T04:02:13.085Z,17.36
2022-08-08T04:02:54.720Z,17.36
2022-08-08T04:03:59.700Z,17.36
2022-08-08T04:04:54.157Z,17.37
2022-08-08T04:05:53.169Z,17.40
2022-08-08T04:06:53.118Z,17.44
2022-08-08T04:07:53.280Z,17.48
2022-08-08T04:08:53.129Z,17.49
2022-08-08T04:10:02.797Z,17.50
2022-08-08T04:10:59.991Z,17.49
2022-08-08T04:11:58.699Z,17.47
2022-08-08T04:12:54.108Z,17.45
2022-08-08T04:14:03.508Z,17.44
2022-08-08T04:14:54.028Z,17.47
2022-08-08T04:16:04.175Z,17.50
2022-08-08T04:16:53.999Z,17.52
2022-08-08T04:17:59.131Z,17.56
2022-08-08T04:18:54.007Z,17.61
2022-08-08T04:19:53.060Z,17.63
2022-08-08T04:20:52.943Z,17.65
2022-08-08T04:21:54.377Z,17.66
2022-08-08T04:22:52.917Z,17.64
2022-08-08T04:24:05.821Z,17.66
2022-08-08T04:24:53.909Z,17.69
2022-08-08T04:26:14.068Z,17.72
2022-08-08T04:26:57.434Z,17.72
2022-08-08T04:28:35.156Z,17.71
2022-08-08T04:28:54.450Z,17.73
2022-08-08T04:30:00.754Z,17.75
2022-08-08T04:30:55.303Z,17.77
2022-08-08T04:31:58.700Z,17.77
2022-08-08T04:32:53.781Z,17.76
2022-08-08T04:33:52.912Z,17.77
2022-08-08T04:34:58.537Z,17.77
2022-08-08T04:35:53.742Z,17.76
2022-08-08T04:36:52.873Z,17.74
2022-08-08T04:37:52.722Z,17.75
2022-08-08T04:39:20.393Z,17.77
2022-08-08T04:40:05.243Z,17.78
2022-08-08T04:40:54.780Z,17.80
2022-08-08T04:41:53.781Z,17.84
2022-08-08T04:42:56.640Z,17.87
2022-08-08T04:43:57.208Z,17.84
2022-08-08T04:44:52.620Z,17.80
2022-08-08T04:45:52.725Z,17.77
2022-08-08T04:46:52.633Z,17.77
2022-08-08T04:47:52.651Z,17.75
2022-08-08T04:48:52.593Z,17.76
2022-08-08T04:49:58.513Z,17.77
2022-08-08T04:50:53.542Z,17.81
2022-08-08T04:51:57.418Z,17.85
2022-08-08T04:53:00.927Z,17.87
2022-08-08T04:54:39.072Z,17.89
2022-08-08T04:54:53.504Z,17.90
2022-08-08T04:55:56.264Z,17.89
2022-08-08T04:56:52.463Z,17.88
2022-08-08T04:57:52.585Z,17.89
2022-08-08T04:58:53.443Z,17.91
2022-08-08T04:59:52.523Z,17.91
2022-08-08T05:00:52.426Z,17.91
2022-08-08T05:01:52.529Z,17.89
2022-08-08T05:02:53.478Z,17.86
2022-08-08T05:04:09.493Z,17.82
2022-08-08T05:04:53.417Z,17.78
2022-08-08T05:05:53.409Z,17.80
2022-08-08T05:06:52.553Z,17.84
2022-08-08T05:07:52.405Z,17.88
2022-08-08T05:08:52.305Z,17.89
2022-08-08T05:09:52.445Z,17.89
2022-08-08T05:10:52.295Z,17.88
2022-08-08T05:11:56.771Z,17.88
2022-08-08T05:13:00.121Z,17.90
2022-08-08T05:13:57.627Z,17.95
2022-08-08T05:14:53.302Z,18.00
2022-08-08T05:16:50.967Z,18.06
2022-08-08T05:17:00.624Z,18.12
2022-08-08T05:17:54.418Z,18.19
2022-08-08T05:18:52.430Z,18.27
2022-08-08T05:20:09.731Z,18.35
2022-08-08T05:20:54.585Z,18.42
2022-08-08T05:21:59.801Z,18.48
2022-08-08T05:22:53.136Z,18.54
2022-08-08T05:24:14.297Z,18.57
2022-08-08T05:24:52.104Z,18.59
2022-08-08T05:25:52.126Z,18.64
2022-08-08T05:26:53.070Z,18.68
2022-08-08T05:27:54.919Z,18.71
2022-08-08T05:28:56.378Z,18.73
2022-08-08T05:29:53.030Z,18.76
2022-08-08T05:30:52.367Z,18.82
2022-08-08T05:32:03.874Z,18.90
2022-08-08T05:32:53.006Z,18.97
2022-08-08T05:33:52.065Z,19.04
2022-08-08T05:34:53.168Z,19.09
2022-08-08T05:35:54.248Z,19.12
2022-08-08T05:36:51.965Z,19.15
2022-08-08T05:37:54.482Z,19.19
2022-08-08T05:38:52.326Z,19.25
2022-08-08T05:39:53.214Z,19.31
2022-08-08T05:40:57.564Z,19.38
2022-08-08T05:41:55.655Z,19.42
2022-08-08T05:42:51.987Z,19.41
2022-08-08T05:44:03.255Z,19.40
2022-08-08T05:44:52.831Z,19.41
2022-08-08T05:45:53.363Z,19.40
2022-08-08T05:46:51.840Z,19.38
2022-08-08T05:47:59.968Z,19.38
2022-08-08T05:48:52.788Z,19.38
2022-08-08T05:49:55.944Z,19.36
2022-08-08T05:50:51.759Z,19.36
2022-08-08T05:51:53.949Z,19.36
2022-08-08T05:52:51.861Z,19.36
2022-08-08T05:54:26.205Z,19.37
2022-08-08T05:54:54.721Z,19.39
2022-08-08T05:56:09.545Z,19.43
2022-08-08T05:56:52.788Z,19.46
2022-08-08T05:58:05.312Z,19.50
2022-08-08T05:58:53.791Z,19.52
2022-08-08T06:00:01.485Z,19.51
2022-08-08T06:00:58.424Z,19.50
2022-08-08T06:01:57.302Z,19.52
2022-08-08T06:02:52.664Z,19.58
2022-08-08T06:03:53.697Z,19.62
2022-08-08T06:04:54.603Z,19.68
2022-08-08T06:05:53.731Z,19.72
2022-08-08T06:06:51.541Z,19.76
2022-08-08T06:08:02.171Z,19.79
2022-08-08T06:08:54.700Z,19.85
2022-08-08T06:10:00.044Z,19.88
2022-08-08T06:10:52.491Z,19.91
2022-08-08T06:11:51.545Z,19.93
2022-08-08T06:12:51.460Z,19.94
2022-08-08T06:13:51.533Z,19.93
2022-08-08T06:14:51.461Z,19.89
2022-08-08T06:15:53.696Z,19.84
2022-08-08T06:16:52.149Z,19.80
2022-08-08T06:18:18.514Z,19.76
2022-08-08T06:18:52.381Z,19.72
2022-08-08T06:19:51.482Z,19.69
2022-08-08T06:20:51.403Z,19.69
2022-08-08T06:21:57.262Z,19.74
2022-08-08T06:22:52.336Z,19.78
2022-08-08T06:24:04.600Z,19.80
2022-08-08T06:24:53.573Z,19.79
2022-08-08T06:26:44.627Z,19.76
2022-08-08T06:26:52.671Z,19.73
2022-08-08T06:27:51.259Z,19.78
2022-08-08T06:28:54.172Z,19.84
2022-08-08T06:29:59.741Z,19.90
2022-08-08T06:30:52.224Z,19.96
2022-08-08T06:31:52.388Z,19.99
2022-08-08T06:32:52.636Z,20.01
2022-08-08T06:34:25.990Z,20.05
2022-08-08T06:34:56.268Z,20.11
2022-08-08T06:36:06.431Z,20.18
2022-08-08T06:36:53.637Z,20.25
2022-08-08T06:37:55.702Z,20.32
2022-08-08T06:38:51.135Z,20.38
2022-08-08T06:39:56.161Z,20.40
2022-08-08T06:40:54.101Z,20.39
2022-08-08T06:41:51.174Z,20.38
2022-08-08T06:42:51.078Z,20.38
2022-08-08T06:43:57.312Z,20.38
2022-08-08T06:44:52.065Z,20.35
2022-08-08T06:45:52.076Z,20.34
2022-08-08T06:46:51.016Z,20.34
2022-08-08T06:47:52.440Z,20.33
2022-08-08T06:48:51.994Z,20.28
2022-08-08T06:49:56.562Z,20.24
2022-08-08T06:50:52.146Z,20.21
2022-08-08T06:51:57.708Z,20.25
2022-08-08T06:52:51.949Z,20.37
2022-08-08T06:53:56.454Z,20.49
2022-08-08T06:54:51.923Z,20.57
2022-08-08T06:56:00.624Z,20.66
2022-08-08T06:56:52.722Z,20.73
2022-08-08T06:57:55.967Z,20.82
2022-08-08T06:58:51.856Z,20.93
2022-08-08T07:00:10.399Z,21.02
2022-08-08T07:00:51.858Z,21.04
2022-08-08T07:02:27.185Z,21.05
2022-08-08T07:02:51.980Z,21.04
2022-08-08T07:04:37.709Z,21.03
2022-08-08T07:04:52.502Z,21.03
2022-08-08T07:06:02.372Z,21.01
2022-08-08T07:06:51.759Z,21.00
2022-08-08T07:07:50.827Z,21.01
2022-08-08T07:08:50.758Z,21.03
2022-08-08T07:10:12.503Z,21.06
2022-08-08T07:10:50.700Z,21.13
2022-08-08T07:11:51.852Z,21.19
2022-08-08T07:12:50.678Z,21.22
2022-08-08T07:14:01.112Z,21.23
2022-08-08T07:14:51.739Z,21.27
2022-08-08T07:16:04.678Z,21.32
2022-08-08T07:16:54.330Z,21.36
2022-08-08T07:18:01.482Z,21.35
2022-08-08T07:18:52.032Z,21.36
2022-08-08T07:19:50.582Z,21.37
2022-08-08T07:20:51.612Z,21.37
2022-08-08T07:21:50.562Z,21.37
2022-08-08T07:22:50.671Z,21.40
2022-08-08T07:24:01.936Z,21.42
2022-08-08T07:24:51.519Z,21.45
2022-08-08T07:25:54.707Z,21.49
2022-08-08T07:26:50.747Z,21.53
2022-08-08T07:28:02.335Z,21.47
2022-08-08T07:28:51.472Z,21.35
2022-08-08T07:30:02.293Z,21.23
2022-08-08T07:30:51.434Z,21.17
2022-08-08T07:31:51.589Z,21.16
2022-08-08T07:32:50.422Z,21.15
2022-08-08T07:33:53.814Z,21.14
2022-08-08T07:35:01.131Z,21.06
2022-08-08T07:35:54.365Z,20.99
2022-08-08T07:36:50.780Z,20.90
2022-08-08T07:38:05.109Z,20.85
2022-08-08T07:38:53.289Z,20.84
2022-08-08T07:39:57.794Z,20.83
2022-08-08T07:40:51.298Z,20.81
2022-08-08T07:42:03.854Z,20.81
2022-08-08T07:42:51.416Z,20.86
2022-08-08T07:43:51.371Z,20.90
2022-08-08T07:44:51.367Z,20.94
2022-08-08T07:46:17.811Z,20.90
2022-08-08T07:46:51.214Z,20.86
2022-08-08T07:47:52.443Z,20.83
2022-08-08T07:48:50.193Z,20.76
2022-08-08T07:49:50.384Z,20.72
2022-08-08T07:50:50.194Z,20.69
2022-08-08T07:51:53.509Z,20.69
2022-08-08T07:52:50.136Z,20.70
2022-08-08T07:54:00.896Z,20.74
2022-08-08T07:54:51.165Z,20.79
2022-08-08T07:55:50.124Z,20.86
2022-08-08T07:56:50.107Z,20.97
2022-08-08T07:58:12.897Z,21.12
2022-08-08T07:58:50.199Z,21.26
2022-08-08T07:59:50.165Z,21.40
2022-08-08T08:00:50.101Z,21.60
2022-08-08T08:02:35.781Z,21.79
2022-08-08T08:02:52.263Z,21.91
2022-08-08T08:03:49.996Z,22.00
2022-08-08T08:04:52.133Z,22.05
2022-08-08T08:05:50.992Z,22.08
2022-08-08T08:07:11.032Z,22.04
2022-08-08T08:07:53.213Z,22.03
2022-08-08T08:08:51.989Z,21.94
2022-08-08T08:09:50.117Z,21.84
2022-08-08T08:10:49.899Z,21.78
2022-08-08T08:11:51.455Z,21.77
2022-08-08T08:12:50.357Z,21.77
2022-08-08T08:14:08.014Z,21.78
2022-08-08T08:14:50.958Z,21.78
2022-08-08T08:15:49.827Z,21.78
2022-08-08T08:16:50.797Z,21.81
2022-08-08T08:17:56.081Z,21.82
2022-08-08T08:18:55.523Z,21.86
2022-08-08T08:19:50.779Z,21.91
2022-08-08T08:20:50.788Z,21.97
2022-08-08T08:21:57.274Z,21.97
2022-08-08T08:22:50.730Z,21.97
2022-08-08T08:23:51.027Z,21.96
2022-08-08T08:24:49.720Z,21.95
2022-08-08T08:25:56.655Z,21.94
2022-08-08T08:26:52.819Z,21.88
2022-08-08T08:27:49.669Z,21.82
2022-08-08T08:28:49.809Z,21.81
2022-08-08T08:29:50.911Z,21.82
2022-08-08T08:30:49.752Z,21.82
2022-08-08T08:31:57.510Z,21.77
2022-08-08T08:32:51.870Z,21.71
2022-08-08T08:33:50.578Z,21.66
2022-08-08T08:34:49.580Z,21.65
2022-08-08T08:36:18.470Z,21.65
2022-08-08T08:36:51.657Z,21.65
2022-08-08T08:38:13.631Z,21.64
2022-08-08T08:38:50.549Z,21.63
2022-08-08T08:40:01.727Z,21.64
2022-08-08T08:40:51.410Z,21.66
2022-08-08T08:41:49.592Z,21.65
2022-08-08T08:42:49.469Z,21.64
2022-08-08T08:43:50.480Z,21.62
2022-08-08T08:44:49.481Z,21.55
2022-08-08T08:45:49.564Z,21.43
2022-08-08T08:46:58.615Z,21.32
2022-08-08T08:47:53.285Z,21.25
2022-08-08T08:48:50.049Z,21.18
2022-08-08T08:49:49.386Z,21.15
2022-08-08T08:50:52.056Z,21.16
2022-08-08T08:51:51.400Z,21.17
2022-08-08T08:52:59.559Z,21.17
2022-08-08T08:53:59.263Z,21.17
2022-08-08T08:54:50.313Z,21.20
2022-08-08T08:55:50.295Z,21.23
2022-08-08T08:56:49.464Z,21.24
2022-08-08T08:57:49.271Z,21.24
2022-08-08T08:58:50.504Z,21.25
2022-08-08T08:59:59.020Z,21.25
2022-08-08T09:01:09.226Z,21.26
2022-08-08T09:01:50.302Z,21.28
2022-08-08T09:02:49.283Z,21.28
2022-08-08T09:03:50.415Z,21.23
2022-08-08T09:04:50.296Z,21.18
2022-08-08T09:05:54.936Z,21.14
2022-08-08T09:06:51.560Z,21.14
2022-08-08T09:07:52.132Z,21.14
2022-08-08T09:08:52.143Z,21.17
2022-08-08T09:09:55.366Z,21.18
2022-08-08T09:10:51.070Z,21.21
2022-08-08T09:12:02.213Z,21.21
2022-08-08T09:12:50.565Z,21.22
2022-08-08T09:13:50.175Z,21.23
2022-08-08T09:14:49.034Z,21.24
2022-08-08T09:15:49.085Z,21.24
2022-08-08T09:16:49.337Z,21.23
2022-08-08T09:17:55.336Z,21.21
2022-08-08T09:18:49.996Z,21.20
2022-08-08T09:21:58.129Z,21.17
2022-08-08T09:22:00.535Z,21.10
2022-08-08T09:22:02.951Z,21.03
2022-08-08T09:22:50.047Z,20.97
2022-08-08T09:23:48.916Z,20.93
2022-08-08T09:24:48.987Z,20.88
2022-08-08T09:25:57.773Z,20.83
2022-08-08T09:26:51.607Z,20.79
2022-08-08T09:27:58.239Z,20.74
2022-08-08T09:28:49.855Z,20.68
2022-08-08T09:29:52.387Z,20.64
2022-08-08T09:30:48.845Z,20.58
2022-08-08T09:31:56.815Z,20.52
2022-08-08T09:32:50.495Z,20.46
2022-08-08T09:34:15.911Z,20.32
2022-08-08T09:34:50.495Z,20.19
2022-08-08T09:35:50.738Z,20.09
2022-08-08T09:36:51.648Z,19.98
2022-08-08T09:38:00.983Z,19.87
2022-08-08T09:38:52.582Z,19.77
2022-08-08T09:39:48.744Z,19.69
2022-08-08T09:40:53.966Z,19.63
2022-08-08T09:42:14.500Z,19.60
2022-08-08T09:42:51.682Z,19.60
2022-08-08T09:44:04.977Z,19.61
2022-08-08T09:44:49.641Z,19.63
2022-08-08T09:45:55.388Z,19.64
2022-08-08T09:46:57.749Z,19.64
2022-08-08T09:48:10.270Z,19.61
2022-08-08T09:48:50.228Z,19.56
2022-08-08T09:49:49.793Z,19.51
2022-08-08T09:50:50.205Z,19.46
2022-08-08T09:52:06.862Z,19.38
2022-08-08T09:52:55.482Z,19.30
2022-08-08T09:53:59.939Z,19.26
2022-08-08T09:54:49.528Z,19.24
2022-08-08T09:56:03.889Z,19.25
2022-08-08T09:56:49.719Z,19.27
2022-08-08T09:57:55.783Z,19.30
2022-08-08T09:58:49.451Z,19.34
2022-08-08T10:00:08.359Z,19.39
2022-08-08T10:00:56.945Z,19.40
2022-08-08T10:01:59.244Z,19.42
2022-08-08T10:02:49.405Z,19.42
2022-08-08T10:03:56.122Z,19.45
2022-08-08T10:04:49.415Z,19.47
2022-08-08T10:05:49.616Z,19.49
2022-08-08T10:06:52.946Z,19.50
2022-08-08T10:07:49.346Z,19.53
2022-08-08T10:08:48.493Z,19.56
2022-08-08T10:09:59.631Z,19.53
2022-08-08T10:10:50.955Z,19.51
2022-08-08T10:12:26.351Z,19.49
2022-08-08T10:12:54.381Z,19.49
2022-08-08T10:13:49.262Z,19.51
2022-08-08T10:14:49.253Z,19.52
2022-08-08T10:16:00.418Z,19.51
2022-08-08T10:16:49.334Z,19.51
2022-08-08T10:18:05.635Z,19.54
2022-08-08T10:18:49.212Z,19.57
2022-08-08T10:19:58.287Z,19.60
2022-08-08T10:20:57.424Z,19.61
2022-08-08T10:21:50.283Z,19.61
2022-08-08T10:23:13.285Z,19.61
2022-08-08T10:23:57.792Z,19.60
2022-08-08T10:24:49.155Z,19.61
2022-08-08T10:25:56.247Z,19.65
2022-08-08T10:26:57.493Z,19.70
2022-08-08T10:27:49.074Z,19.76
2022-08-08T10:29:11.274Z,19.80
2022-08-08T10:29:58.688Z,19.84
2022-08-08T10:31:00.101Z,19.85
2022-08-08T10:31:49.025Z,19.86
2022-08-08T10:32:50.974Z,19.87
2022-08-08T10:34:19.564Z,19.89
2022-08-08T10:34:48.995Z,19.89
2022-08-08T10:36:07.520Z,19.91
2022-08-08T10:36:48.985Z,19.95
2022-08-08T10:37:47.943Z,20.00
2022-08-08T10:38:50.105Z,20.07
2022-08-08T10:39:53.862Z,20.13
2022-08-08T10:40:48.913Z,20.21
2022-08-08T10:42:07.645Z,20.27
2022-08-08T10:42:52.324Z,20.33
2022-08-08T10:43:47.857Z,20.39
2022-08-08T10:44:49.445Z,20.45
2022-08-08T10:45:57.296Z,20.51
2022-08-08T10:46:48.826Z,20.56
2022-08-08T10:47:48.672Z,20.60
2022-08-08T10:48:56.627Z,20.61
2022-08-08T10:50:01.838Z,20.62
2022-08-08T10:50:48.766Z,20.62
2022-08-08T10:51:51.540Z,20.58
2022-08-08T10:52:47.750Z,20.52
2022-08-08T10:53:56.583Z,20.50
2022-08-08T10:54:48.736Z,20.49
2022-08-08T10:55:48.881Z,20.47
2022-08-08T10:56:47.686Z,20.39
2022-08-08T10:57:50.270Z,20.32
2022-08-08T10:58:54.914Z,20.25
2022-08-08T10:59:48.656Z,20.24
2022-08-08T11:00:53.507Z,20.22
2022-08-08T11:01:54.326Z,20.23
2022-08-08T11:02:48.617Z,20.26
2022-08-08T11:04:00.505Z,20.32
2022-08-08T11:04:53.894Z,20.37
2022-08-08T11:05:51.791Z,20.34
2022-08-08T11:06:49.443Z,20.29
2022-08-08T11:08:31.099Z,20.24
2022-08-08T11:08:53.126Z,20.17
2022-08-08T11:09:48.519Z,20.11
2022-08-08T11:10:47.569Z,20.08
2022-08-08T11:12:05.994Z,20.00
2022-08-08T11:12:48.480Z,19.92
2022-08-08T11:15:18.953Z,19.26
2022-08-08T11:16:00.366Z,19.26
2022-08-08T11:16:57.993Z,19.47
2022-08-08T11:18:00.636Z,19.61
2022-08-08T11:18:57.722Z,19.64
2022-08-08T11:19:59.635Z,19.66
2022-08-08T11:20:57.784Z,19.65
2022-08-08T11:21:57.850Z,19.65
2022-08-08T11:22:57.706Z,19.64
2022-08-08T11:24:02.259Z,19.64
2022-08-08T11:24:57.646Z,19.65
2022-08-08T11:25:58.573Z,19.66
2022-08-08T11:26:57.960Z,19.67
2022-08-08T11:27:57.745Z,19.70
2022-08-08T11:28:57.614Z,19.72
2022-08-08T11:30:20.395Z,19.71
2022-08-08T11:30:59.979Z,19.68
2022-08-08T11:31:57.558Z,19.67
2022-08-08T11:32:58.625Z,19.63
2022-08-08T11:34:03.687Z,19.59
2022-08-08T11:35:10.604Z,19.50
2022-08-08T11:35:58.624Z,19.43
2022-08-08T11:36:58.708Z,19.37
2022-08-08T11:38:36.202Z,19.35
2022-08-08T11:38:58.541Z,19.34
2022-08-08T11:39:57.911Z,19.36
2022-08-08T11:40:57.538Z,19.38
2022-08-08T11:41:57.426Z,19.40
2022-08-08T11:42:58.496Z,19.40
2022-08-08T11:43:57.661Z,19.40
2022-08-08T11:44:57.497Z,19.40
2022-08-08T11:46:14.375Z,19.39
2022-08-08T11:46:58.360Z,19.36
2022-08-08T11:48:02.960Z,19.32
2022-08-08T11:48:58.337Z,19.29
2022-08-08T11:49:57.436Z,19.25
2022-08-08T11:50:57.304Z,19.22
2022-08-08T11:51:57.545Z,19.21
2022-08-08T11:52:57.276Z,19.24
2022-08-08T11:53:58.927Z,19.27
2022-08-08T11:54:57.266Z,19.27
2022-08-08T11:55:57.338Z,19.28
2022-08-08T11:56:57.913Z,19.28
2022-08-08T11:58:00.891Z,19.26
2022-08-08T11:58:58.207Z,19.24
2022-08-08T12:00:01.081Z,19.26
2022-08-08T12:00:58.176Z,19.27
2022-08-08T12:02:15.053Z,19.30
2022-08-08T12:02:58.181Z,19.34
2022-08-08T12:03:59.743Z,19.37
2022-08-08T12:04:57.122Z,19.38
2022-08-08T12:05:58.426Z,19.39
2022-08-08T12:06:57.080Z,19.41
2022-08-08T12:07:57.270Z,19.46
2022-08-08T12:08:57.061Z,19.50
2022-08-08T12:10:00.472Z,19.54
2022-08-08T12:10:57.038Z,19.55
2022-08-08T12:11:57.122Z,19.57
2022-08-08T12:12:57.010Z,19.57
2022-08-08T12:14:02.900Z,19.57
2022-08-08T12:14:58.030Z,19.56
2022-08-08T12:15:57.029Z,19.56
2022-08-08T12:16:57.183Z,19.57
2022-08-08T12:17:57.178Z,19.59
2022-08-08T12:18:56.928Z,19.61
2022-08-08T12:19:58.092Z,19.63
2022-08-08T12:20:59.675Z,19.64
2022-08-08T12:22:08.961Z,19.62
2022-08-08T12:22:57.920Z,19.61
2022-08-08T12:23:59.637Z,19.60
2022-08-08T12:24:56.860Z,19.57
2022-08-08T12:25:57.030Z,19.56
2022-08-08T12:26:56.881Z,19.57
2022-08-08T12:27:59.266Z,19.59
2022-08-08T12:28:57.071Z,19.60
2022-08-08T12:29:56.847Z,19.60
2022-08-08T12:30:56.771Z,19.60
2022-08-08T12:31:57.950Z,19.60
2022-08-08T12:32:56.767Z,19.59
2022-08-08T12:34:02.115Z,19.60
2022-08-08T12:35:04.624Z,19.62
2022-08-08T12:35:57.717Z,19.66
2022-08-08T12:36:57.843Z,19.71
2022-08-08T12:38:02.555Z,19.76
2022-08-08T12:38:57.683Z,19.78
2022-08-08T12:40:00.387Z,19.82
2022-08-08T12:40:59.181Z,19.84
2022-08-08T12:42:01.908Z,19.86
2022-08-08T12:42:57.611Z,19.89
2022-08-08T12:43:59.868Z,19.92
2022-08-08T12:44:56.618Z,19.94
2022-08-08T12:46:19.243Z,19.96
2022-08-08T12:47:00.054Z,19.98
2022-08-08T12:48:04.311Z,19.99
2022-08-08T12:49:25.690Z,20.00
2022-08-08T12:49:57.545Z,20.02
2022-08-08T12:50:57.262Z,20.04
2022-08-08T12:52:00.991Z,20.07
2022-08-08T12:52:56.466Z,20.11